Time;durP1;ratioP1;P1;durP2;ratioP2;P2;SDS_P1;SDS_P2;PMS_P1;PMS_P2;Temp;Humidity;BMP_temperature;BMP_pressure;BME280_temperature;BME280_humidity;BME280_pressure;Samples;Min_cycle;Max_cycle;Signal;HPM_P1;HPM_P2
2022/01/22 00:02:26;;;;;;;9.07;6.30;;;4.00;1.00;;;;;;6222617;22;20282;-83
2022/01/22 00:16:56;;;;;;;8.55;6.25;;;4.20;1.00;;;;;;6190427;23;21220;-83
2022/01/22 00:20:12;;;;;;;9.27;7.25;;;4.20;1.00;;;;;;6198257;23;20193;-84
2022/01/22 01:33:57;;;;;;;7.68;6.03;;;4.50;1.00;;;;;;5115410;27;20238;-83
2022/01/22 01:36:25;;;;;;;8.73;6.40;;;4.50;1.00;;;;;;5110398;27;20321;-83
2022/01/22 01:38:56;;;;;;;9.88;6.70;;;4.60;1.00;;;;;;5110364;27;20299;-83
2022/01/22 01:41:31;;;;;;;7.38;5.57;;;4.60;1.00;;;;;;5107233;27;20225;-82
2022/01/22 01:43:58;;;;;;;9.50;6.30;;;4.60;1.00;;;;;;5112295;27;20298;-83
2022/01/22 01:46:31;;;;;;;7.28;5.68;;;4.60;1.00;;;;;;5112964;27;20215;-83
2022/01/22 01:48:59;;;;;;;7.10;4.95;;;4.60;1.00;;;;;;5106599;27;20241;-84
2022/01/22 01:51:30;;;;;;;8.18;6.15;;;4.60;1.00;;;;;;5117367;27;20216;-81
2022/01/22 01:54:03;;;;;;;7.70;5.38;;;4.60;1.00;;;;;;5122978;27;20231;-81
2022/01/22 01:59:17;;;;;;;8.05;5.63;;;4.60;1.00;;;;;;5118283;27;20227;-83
2022/01/22 02:01:44;;;;;;;7.65;5.63;;;4.50;1.00;;;;;;5119001;27;20950;-83
2022/01/22 02:04:13;;;;;;;6.88;5.15;;;4.60;1.00;;;;;;5116683;27;20223;-82
2022/01/22 02:06:42;;;;;;;7.43;5.32;;;4.50;1.00;;;;;;5107019;27;21099;-83
2022/01/22 02:09:10;;;;;;;6.90;5.30;;;4.50;1.00;;;;;;5113336;27;20231;-83
2022/01/22 02:11:38;;;;;;;8.05;5.88;;;4.50;1.00;;;;;;5112709;27;20219;-83
2022/01/22 02:14:08;;;;;;;9.43;5.40;;;4.40;1.00;;;;;;5112548;27;20384;-81
2022/01/22 02:24:56;;;;;;;7.03;5.18;;;4.40;1.00;;;;;;5123506;27;20208;-81
2022/01/22 02:27:23;;;;;;;6.57;5.50;;;4.40;1.00;;;;;;5117948;27;20227;-82
2022/01/22 02:29:50;;;;;;;7.07;5.18;;;4.50;1.00;;;;;;5101721;27;20708;-85
2022/01/22 02:32:49;;;;;;;6.38;4.85;;;4.50;1.00;;;;;;5100355;27;20283;-83
2022/01/22 02:35:24;;;;;;;10.52;6.85;;;4.40;1.00;;;;;;5096576;27;20227;-83
2022/01/22 02:37:57;;;;;;;6.18;4.40;;;4.40;1.00;;;;;;5096911;27;20807;-83
2022/01/22 02:40:27;;;;;;;6.05;5.13;;;4.40;1.00;;;;;;5096389;27;20282;-83
2022/01/22 02:42:54;;;;;;;8.35;5.50;;;4.40;1.00;;;;;;5098442;27;20224;-84
2022/01/22 02:45:23;;;;;;;6.80;5.63;;;4.40;1.00;;;;;;5092496;27;20828;-83
2022/01/22 02:47:50;;;;;;;5.82;4.75;;;4.30;1.00;;;;;;5095564;27;20220;-83
2022/01/22 02:50:17;;;;;;;6.45;5.25;;;4.30;1.00;;;;;;5101789;27;20243;-82
2022/01/22 02:52:44;;;;;;;8.05;4.85;;;4.30;1.00;;;;;;5094875;27;20306;-84
2022/01/22 02:55:13;;;;;;;7.15;4.82;;;4.30;1.00;;;;;;5103957;27;20212;-82
2022/01/22 02:57:43;;;;;;;6.60;5.75;;;4.30;1.00;;;;;;5091310;27;21349;-84
2022/01/22 03:00:12;;;;;;;7.57;5.40;;;4.30;1.00;;;;;;5082641;27;20231;-83
2022/01/22 03:02:40;;;;;;;8.60;5.65;;;4.30;1.00;;;;;;5065033;28;20251;-84
2022/01/22 03:05:08;;;;;;;9.60;5.72;;;4.30;1.00;;;;;;5078082;28;20283;-84
2022/01/22 03:07:36;;;;;;;7.68;5.05;;;4.30;1.00;;;;;;5052926;28;20232;-83
2022/01/22 03:10:04;;;;;;;7.68;6.32;;;4.30;1.00;;;;;;5071957;28;21691;-83
2022/01/22 03:12:51;;;;;;;7.22;5.32;;;4.30;1.00;;;;;;5056685;28;21199;-84
2022/01/22 03:18:03;;;;;;;6.30;5.13;;;4.30;1.00;;;;;;5068983;28;20236;-84
2022/01/22 03:20:45;;;;;;;6.63;4.32;;;4.20;1.00;;;;;;5073583;28;20567;-83
2022/01/22 03:27:19;;;;;;;9.43;4.90;;;4.20;1.00;;;;;;5072225;28;20319;-83
2022/01/22 03:28:55;;;;;;;5.75;3.60;;;4.10;1.00;;;;;;5080770;28;20244;-84
2022/01/22 03:31:23;;;;;;;5.40;3.95;;;4.00;1.00;;;;;;5073947;28;20231;-83
2022/01/22 03:33:50;;;;;;;4.68;3.58;;;3.90;1.00;;;;;;5070022;28;20227;-83
2022/01/22 03:36:18;;;;;;;4.93;3.45;;;3.90;1.00;;;;;;5075893;28;20212;-81
2022/01/22 03:38:45;;;;;;;6.13;3.20;;;3.70;1.00;;;;;;5073866;28;20220;-83
2022/01/22 03:41:12;;;;;;;7.10;2.83;;;3.60;1.00;;;;;;5046356;28;20228;-82
2022/01/22 03:43:39;;;;;;;3.50;2.65;;;3.50;1.00;;;;;;5053629;28;20278;-83
2022/01/22 03:46:08;;;;;;;5.32;3.22;;;3.50;1.00;;;;;;5080230;28;20752;-83
2022/01/22 03:48:35;;;;;;;5.13;3.30;;;3.50;1.00;;;;;;5072817;28;20250;-83
2022/01/22 03:51:02;;;;;;;6.70;3.05;;;3.40;1.00;;;;;;5080087;28;20935;-82
2022/01/22 03:53:29;;;;;;;5.35;3.45;;;3.40;1.00;;;;;;5072502;28;20224;-83
2022/01/22 03:56:02;;;;;;;5.68;3.45;;;3.30;1.00;;;;;;5073892;28;21204;-82
2022/01/22 03:58:30;;;;;;;4.50;3.58;;;3.30;1.00;;;;;;5075387;28;20221;-83
2022/01/22 04:01:19;;;;;;;6.43;3.40;;;3.20;1.00;;;;;;5076512;28;20216;-82
2022/01/22 04:03:55;;;;;;;5.65;3.35;;;3.20;1.00;;;;;;5075204;28;20228;-82
2022/01/22 04:09:11;;;;;;;4.80;3.25;;;3.10;1.00;;;;;;5073118;28;20258;-83
2022/01/22 04:11:42;;;;;;;5.25;4.10;;;3.10;1.00;;;;;;5058077;28;20220;-83
2022/01/22 04:14:15;;;;;;;5.65;4.15;;;3.20;1.00;;;;;;5071080;28;20433;-83
2022/01/22 04:16:54;;;;;;;5.78;3.58;;;3.10;1.00;;;;;;5073182;28;20224;-83
2022/01/22 04:24:54;;;;;;;6.90;4.20;;;3.20;1.00;;;;;;5056471;28;21168;-82
2022/01/22 04:27:23;;;;;;;6.32;4.50;;;3.30;1.00;;;;;;5064718;28;20224;-82
2022/01/22 04:29:51;;;;;;;8.75;4.15;;;3.40;1.00;;;;;;5082338;28;20255;-82
2022/01/22 04:32:18;;;;;;;5.45;3.63;;;3.50;1.00;;;;;;5066356;28;20225;-83
2022/01/22 04:34:46;;;;;;;8.25;6.28;;;3.50;1.00;;;;;;5073764;28;20220;-83
2022/01/22 04:37:13;;;;;;;4.95;3.72;;;3.40;1.00;;;;;;5080199;28;20233;-84
2022/01/22 04:39:40;;;;;;;6.68;3.55;;;3.40;1.00;;;;;;5080069;28;20316;-83
2022/01/22 04:42:07;;;;;;;5.95;3.92;;;3.40;1.00;;;;;;5076316;28;21441;-82
2022/01/22 04:44:40;;;;;;;6.18;4.07;;;3.40;1.00;;;;;;5088062;28;21773;-81
2022/01/22 04:47:20;;;;;;;9.05;4.32;;;3.30;1.00;;;;;;5101937;28;20697;-81
2022/01/22 04:52:41;;;;;;;7.25;4.22;;;3.20;1.00;;;;;;5078344;28;20322;-83
2022/01/22 04:55:08;;;;;;;6.45;4.03;;;3.20;1.00;;;;;;5067765;28;20225;-82
2022/01/22 04:57:36;;;;;;;6.20;3.70;;;3.30;1.00;;;;;;5073991;28;20274;-82
2022/01/22 05:00:05;;;;;;;7.20;3.30;;;3.30;1.00;;;;;;5072736;28;20236;-82
2022/01/22 05:02:32;;;;;;;6.75;3.83;;;3.30;1.00;;;;;;5074919;28;20310;-83
2022/01/22 05:05:00;;;;;;;6.35;4.43;;;3.30;1.00;;;;;;5078611;28;20957;-83
2022/01/22 05:07:27;;;;;;;4.57;3.30;;;3.30;1.00;;;;;;5077318;28;20224;-82
2022/01/22 05:09:54;;;;;;;6.05;4.45;;;3.30;1.00;;;;;;5076777;28;20234;-82
2022/01/22 05:12:20;;;;;;;5.22;3.60;;;3.30;1.00;;;;;;5073949;28;20729;-82
2022/01/22 05:14:47;;;;;;;6.47;4.00;;;3.40;1.00;;;;;;5070955;28;20286;-82
2022/01/22 05:17:14;;;;;;;8.13;4.00;;;3.40;1.00;;;;;;5075559;28;20277;-82
2022/01/22 05:19:49;;;;;;;6.10;4.53;;;3.50;1.00;;;;;;5072047;28;20231;-83
2022/01/22 05:22:30;;;;;;;5.43;3.38;;;3.50;1.00;;;;;;5072651;28;20227;-82
2022/01/22 05:25:01;;;;;;;5.07;3.70;;;3.40;1.00;;;;;;5074071;28;20220;-82
2022/01/22 05:27:52;;;;;;;7.22;3.45;;;3.40;1.00;;;;;;5076196;28;20242;-83
2022/01/22 05:30:48;;;;;;;5.22;3.28;;;3.40;1.00;;;;;;5072443;28;20232;-83
2022/01/22 05:33:30;;;;;;;4.05;3.13;;;3.40;1.00;;;;;;5076006;28;21161;-83
2022/01/22 05:38:43;;;;;;;4.38;3.60;;;3.30;1.00;;;;;;5075920;28;20338;-83
2022/01/22 05:41:12;;;;;;;8.48;3.67;;;3.30;1.00;;;;;;5074327;28;20216;-84
2022/01/22 05:43:39;;;;;;;6.43;3.72;;;3.20;1.00;;;;;;5077795;28;20306;-83
2022/01/22 05:46:06;;;;;;;3.92;3.30;;;3.10;1.00;;;;;;5072057;28;20231;-83
2022/01/22 05:48:33;;;;;;;5.43;3.90;;;3.10;1.00;;;;;;5068809;28;20662;-83
2022/01/22 05:51:02;;;;;;;6.20;4.10;;;3.00;1.00;;;;;;5075468;28;20223;-81
2022/01/22 05:53:41;;;;;;;6.68;4.03;;;3.00;1.00;;;;;;5076405;28;20239;-85
2022/01/22 06:01:44;;;;;;;5.93;3.72;;;2.80;1.00;;;;;;5062192;28;21013;-83
2022/01/22 06:04:11;;;;;;;5.15;3.90;;;2.80;1.00;;;;;;5082700;28;20310;-83
2022/01/22 06:06:38;;;;;;;6.00;3.80;;;2.80;1.00;;;;;;5088196;28;20225;-83
2022/01/22 06:09:08;;;;;;;4.85;3.47;;;2.70;1.00;;;;;;5085440;28;22095;-83
2022/01/22 06:11:51;;;;;;;4.50;3.55;;;2.70;1.00;;;;;;5077863;28;20220;-83
2022/01/22 06:14:18;;;;;;;8.05;3.60;;;2.60;1.00;;;;;;5075924;28;20228;-82
2022/01/22 06:16:45;;;;;;;6.35;4.45;;;2.60;1.00;;;;;;5073899;28;20299;-84
2022/01/22 06:19:12;;;;;;;8.60;3.88;;;2.50;1.00;;;;;;5058737;28;20221;-82
2022/01/22 06:21:38;;;;;;;8.30;4.57;;;2.50;1.00;;;;;;5058887;28;20220;-82
2022/01/22 06:24:06;;;;;;;4.53;4.03;;;2.60;1.00;;;;;;5059197;28;20228;-82
2022/01/22 06:26:35;;;;;;;5.70;3.92;;;2.60;1.00;;;;;;5079037;28;20231;-83
2022/01/22 06:29:04;;;;;;;8.45;3.95;;;2.60;1.00;;;;;;5081320;28;20228;-83
2022/01/22 06:31:31;;;;;;;6.25;3.97;;;2.60;1.00;;;;;;5077730;28;20208;-83
2022/01/22 06:33:58;;;;;;;6.43;4.25;;;2.60;1.00;;;;;;5080337;28;20340;-83
2022/01/22 06:36:25;;;;;;;9.25;4.88;;;2.60;1.00;;;;;;5092928;28;20229;-82
2022/01/22 06:38:56;;;;;;;4.90;3.58;;;2.70;1.00;;;;;;5107991;28;20231;-81
2022/01/22 06:44:09;;;;;;;8.93;5.10;;;2.60;1.00;;;;;;5088865;28;20231;-81
2022/01/22 06:46:37;;;;;;;6.25;4.30;;;2.50;1.00;;;;;;5103285;27;20224;-81
2022/01/22 06:49:03;;;;;;;5.93;3.90;;;2.50;1.00;;;;;;5101661;28;20220;-82
2022/01/22 06:51:30;;;;;;;10.27;5.00;;;2.50;1.00;;;;;;5095214;28;20954;-82
2022/01/22 06:53:57;;;;;;;6.05;4.45;;;2.40;1.00;;;;;;5088319;28;20238;-82
2022/01/22 06:56:28;;;;;;;5.97;4.22;;;2.40;1.00;;;;;;5088998;28;21696;-82
2022/01/22 06:58:55;;;;;;;8.90;3.90;;;2.40;1.00;;;;;;5085983;28;20340;-82
2022/01/22 07:01:23;;;;;;;10.18;4.60;;;2.40;1.00;;;;;;5083279;28;20224;-84
2022/01/22 07:03:50;;;;;;;8.27;4.90;;;2.30;1.00;;;;;;5072549;28;20286;-83
2022/01/22 07:06:17;;;;;;;5.93;3.90;;;2.40;1.00;;;;;;5084308;28;20228;-83
2022/01/22 07:08:43;;;;;;;8.70;5.22;;;2.30;1.00;;;;;;5098923;28;21095;-82
2022/01/22 07:11:10;;;;;;;7.63;4.38;;;2.30;1.00;;;;;;5079691;28;20259;-83
2022/01/22 07:13:38;;;;;;;11.10;4.40;;;2.30;1.00;;;;;;5085974;28;20737;-83
2022/01/22 07:16:05;;;;;;;8.43;5.13;;;2.30;1.00;;;;;;5071826;28;20235;-83
2022/01/22 07:18:34;;;;;;;8.02;4.30;;;2.30;1.00;;;;;;5079506;28;20275;-82
2022/01/22 07:21:08;;;;;;;6.53;4.45;;;2.30;1.00;;;;;;5090410;28;20230;-83
2022/01/22 07:24:22;;;;;;;6.47;4.10;;;2.30;1.00;;;;;;5086662;28;21485;-83
2022/01/22 07:26:31;;;;;;;6.05;4.85;;;2.40;1.00;;;;;;5078671;28;20242;-83
2022/01/22 07:28:59;;;;;;;7.03;4.38;;;2.40;1.00;;;;;;5080132;28;20336;-83
2022/01/22 07:31:27;;;;;;;7.63;4.40;;;2.40;1.00;;;;;;5067683;28;20292;-83
2022/01/22 07:33:55;;;;;;;7.45;4.82;;;2.30;1.00;;;;;;5076750;28;20740;-84
2022/01/22 07:36:22;;;;;;;7.35;4.20;;;2.40;1.00;;;;;;5081575;28;21020;-83
2022/01/22 07:38:49;;;;;;;9.70;5.30;;;2.40;1.00;;;;;;5076840;28;20231;-83
2022/01/22 07:41:17;;;;;;;6.03;4.45;;;2.50;1.00;;;;;;5057921;28;20220;-82
2022/01/22 07:43:44;;;;;;;6.40;5.03;;;2.60;1.00;;;;;;5074906;28;20258;-83
2022/01/22 07:46:11;;;;;;;6.35;4.78;;;2.70;1.00;;;;;;5077480;28;20217;-83
2022/01/22 07:48:38;;;;;;;10.43;5.10;;;2.70;1.00;;;;;;5080620;28;20959;-83
2022/01/22 07:51:07;;;;;;;5.55;4.72;;;2.80;1.00;;;;;;5058037;28;21098;-84
2022/01/22 07:53:34;;;;;;;5.90;4.15;;;2.80;1.00;;;;;;5056662;28;20243;-84
2022/01/22 07:56:01;;;;;;;7.30;5.38;;;2.90;1.00;;;;;;5060007;28;20282;-83
2022/01/22 07:58:27;;;;;;;12.05;4.15;;;2.90;1.00;;;;;;5059016;28;20234;-83
2022/01/22 08:00:54;;;;;;;10.57;5.55;;;2.90;1.00;;;;;;5078231;28;20220;-82
2022/01/22 08:03:21;;;;;;;7.22;4.70;;;2.90;1.00;;;;;;5075898;28;20308;-80
2022/01/22 08:06:09;;;;;;;5.50;3.55;;;2.90;1.00;;;;;;5065201;28;20312;-77
2022/01/22 08:08:43;;;;;;;5.43;4.45;;;3.00;1.00;;;;;;5060120;28;20232;-77
2022/01/22 08:11:41;;;;;;;;;;;;;;;;;;;;;
2022/01/22 08:21:08;;;;;;;9.98;5.93;;;3.10;1.00;;;;;;5050035;28;20239;-77
2022/01/22 08:23:51;;;;;;;8.70;5.18;;;3.20;1.00;;;;;;5072130;22;21247;-78
2022/01/22 08:26:22;;;;;;;6.55;4.80;;;3.30;1.00;;;;;;5013204;28;20229;-81
2022/01/22 08:29:00;;;;;;;8.80;4.85;;;3.40;1.00;;;;;;5009198;28;20377;-80
2022/01/22 08:37:26;;;;;;;7.22;4.20;;;3.40;1.00;;;;;;4990917;28;20231;-80
2022/01/22 08:40:22;;;;;;;8.10;4.88;;;3.60;1.00;;;;;;4993598;28;20219;-78
2022/01/22 08:43:14;;;;;;;12.25;8.55;;;3.70;1.00;;;;;;4992952;28;20275;-80
2022/01/22 08:48:34;;;;;;;6.00;4.60;;;3.90;1.00;;;;;;4987839;28;20239;-77
2022/01/22 08:51:01;;;;;;;8.18;4.65;;;4.00;1.00;;;;;;4994151;28;20231;-80
2022/01/22 08:53:32;;;;;;;8.38;4.53;;;4.10;1.00;;;;;;4996827;28;20232;-79
2022/01/22 08:56:05;;;;;;;5.57;4.43;;;4.40;1.00;;;;;;5018275;28;20230;-80
2022/01/22 08:58:38;;;;;;;11.00;5.63;;;4.80;1.00;;;;;;5003459;28;20230;-80
2022/01/22 09:01:29;;;;;;;5.15;3.85;;;5.20;1.00;;;;;;5013078;28;20295;-81
2022/01/22 09:03:59;;;;;;;7.50;5.20;;;5.40;1.00;;;;;;4996686;28;20358;-81
2022/01/22 09:06:34;;;;;;;5.47;4.30;;;5.60;1.00;;;;;;4994567;28;20219;-80
2022/01/22 09:09:09;;;;;;;7.95;4.72;;;5.60;1.00;;;;;;4990410;28;20242;-81
2022/01/22 09:19:33;;;;;;;5.80;3.90;;;5.90;1.00;;;;;;4985992;28;20231;-82
2022/01/22 09:22:21;;;;;;;6.72;3.38;;;5.80;1.00;;;;;;4997047;28;20247;-81
2022/01/22 09:25:15;;;;;;;6.25;3.60;;;5.80;1.00;;;;;;5014895;28;20438;-80
2022/01/22 09:28:13;;;;;;;6.75;4.10;;;5.70;1.00;;;;;;5004402;28;20230;-81
2022/01/22 09:30:59;;;;;;;8.57;3.55;;;5.70;1.00;;;;;;5008215;28;20342;-80
2022/01/22 09:37:08;;;;;;;6.10;5.10;;;5.80;1.00;;;;;;4969986;28;20817;-80
2022/01/22 09:53:21;;;;;;;4.97;2.72;;;7.10;1.00;;;;;;4905470;28;20232;-81
2022/01/22 10:00:05;;;;;;;7.93;3.55;;;7.20;1.00;;;;;;4904055;28;20969;-80
2022/01/22 10:02:58;;;;;;;4.05;2.78;;;7.10;1.00;;;;;;4921441;28;20238;-82
2022/01/22 10:06:23;;;;;;;2.78;1.90;;;7.00;1.00;;;;;;4913174;28;21038;-81
2022/01/22 10:09:34;;;;;;;5.75;3.65;;;6.80;1.00;;;;;;4906729;28;20268;-81
2022/01/22 10:12:31;;;;;;;5.10;2.75;;;6.70;1.00;;;;;;4949756;28;20250;-81
2022/01/22 10:15:39;;;;;;;4.43;2.47;;;6.60;1.00;;;;;;5000434;28;20218;-82
2022/01/22 10:18:37;;;;;;;5.40;2.67;;;6.50;1.00;;;;;;4998768;28;20229;-80
2022/01/22 10:21:41;;;;;;;6.13;2.67;;;6.60;1.00;;;;;;4993470;28;21030;-81
2022/01/22 10:28:34;;;;;;;5.45;2.90;;;6.40;1.00;;;;;;4968702;28;20271;-80
2022/01/22 10:48:28;;;;;;;4.43;3.13;;;8.00;1.00;;;;;;4969203;28;20241;-81
2022/01/22 10:54:27;;;;;;;3.35;2.50;;;7.70;1.00;;;;;;4990804;28;20298;-83
2022/01/22 11:11:03;;;;;;;6.75;2.63;;;7.80;1.00;;;;;;4873798;29;20255;-80
2022/01/22 11:14:07;;;;;;;5.47;2.70;;;8.00;1.00;;;;;;4988406;28;20240;-81
2022/01/22 11:27:21;;;;;;;6.20;3.42;;;8.30;1.00;;;;;;4926928;28;20340;-81
2022/01/22 11:30:15;;;;;;;5.28;3.20;;;8.00;1.00;;;;;;4987637;28;21164;-78
2022/01/22 11:36:25;;;;;;;3.50;2.50;;;7.40;1.00;;;;;;4993302;28;20682;-78
2022/01/22 11:39:06;;;;;;;3.67;2.88;;;7.30;1.00;;;;;;4961389;28;21056;-77
2022/01/22 11:42:00;;;;;;;4.28;3.05;;;7.30;1.00;;;;;;5002376;28;20232;-78
2022/01/22 11:45:17;;;;;;;3.50;2.53;;;7.40;1.00;;;;;;5004379;28;20364;-78
2022/01/22 11:48:27;;;;;;;5.00;2.45;;;7.50;1.00;;;;;;4989781;28;20262;-78
2022/01/22 11:51:35;;;;;;;6.45;2.55;;;7.90;1.00;;;;;;4999502;28;20365;-78
2022/01/22 11:54:33;;;;;;;4.85;3.13;;;8.90;1.00;;;;;;4993576;28;20387;-78
2022/01/22 11:57:41;;;;;;;5.50;3.10;;;9.40;1.00;;;;;;5007968;28;20293;-78
2022/01/22 12:00:23;;;;;;;9.20;3.30;;;9.70;1.00;;;;;;4991875;28;20230;-78
2022/01/22 12:03:19;;;;;;;6.07;3.15;;;9.70;1.00;;;;;;4986302;28;20266;-77
2022/01/22 12:06:09;;;;;;;8.05;3.10;;;9.60;1.00;;;;;;4994490;28;20310;-78
2022/01/22 12:09:04;;;;;;;9.73;3.77;;;9.70;1.00;;;;;;4996599;28;20659;-80
2022/01/22 12:14:55;;;;;;;7.40;2.13;;;9.40;1.00;;;;;;4973380;28;20239;-77
2022/01/22 12:18:03;;;;;;;4.28;2.70;;;9.00;1.00;;;;;;4993669;28;20249;-78
2022/01/22 12:21:30;;;;;;;6.25;3.20;;;8.70;1.00;;;;;;4983481;28;20233;-78
2022/01/22 12:23:56;;;;;;;10.85;3.03;;;8.40;1.00;;;;;;4994973;28;21427;-78
2022/01/22 12:26:47;;;;;;;21.17;5.15;;;8.20;1.00;;;;;;5011562;28;20565;-83
2022/01/22 12:29:38;;;;;;;18.77;3.92;;;7.90;1.00;;;;;;5009725;28;20234;-85
2022/01/22 12:35:34;;;;;;;11.60;3.85;;;7.50;1.00;;;;;;4995574;28;20215;-86
2022/01/22 12:38:19;;;;;;;16.50;4.43;;;7.50;1.00;;;;;;5000770;28;20274;-85
2022/01/22 12:40:50;;;;;;;8.23;3.15;;;7.50;1.00;;;;;;5007860;28;20226;-90
2022/01/22 12:43:28;;;;;;;18.88;8.23;;;7.50;1.00;;;;;;4996800;28;20241;-85
2022/01/22 12:46:03;;;;;;;21.88;5.45;;;7.50;1.00;;;;;;5000220;28;20231;-86
2022/01/22 12:48:44;;;;;;;17.63;5.40;;;7.50;1.00;;;;;;5012795;28;20275;-83
2022/01/22 12:51:12;;;;;;;14.65;4.00;;;7.50;1.00;;;;;;5023311;28;20869;-87
2022/01/22 12:53:48;;;;;;;8.55;3.33;;;7.40;1.00;;;;;;5018925;28;20243;-88
2022/01/22 13:02:08;;;;;;;9.98;4.72;;;7.30;1.00;;;;;;5005479;28;20291;-89
2022/01/22 13:04:37;;;;;;;13.15;4.03;;;7.30;1.00;;;;;;5002298;28;20335;-87
2022/01/22 13:07:12;;;;;;;12.65;6.30;;;7.30;1.00;;;;;;4996395;28;20232;-84
2022/01/22 13:09:59;;;;;;;6.13;3.75;;;7.40;1.00;;;;;;4997449;28;21000;-84
2022/01/22 13:19:39;;;;;;;6.53;3.85;;;7.20;1.00;;;;;;4936838;28;20216;-84
2022/01/22 13:22:09;;;;;;;8.88;3.47;;;7.10;1.00;;;;;;4997786;28;20228;-85
2022/01/22 13:25:10;;;;;;;15.68;5.10;;;7.10;1.00;;;;;;4997440;28;20366;-86
2022/01/22 13:27:44;;;;;;;8.15;3.47;;;7.10;1.00;;;;;;4936491;28;21505;-87
2022/01/22 13:30:14;;;;;;;4.75;3.28;;;7.00;1.00;;;;;;4994832;28;20238;-83
2022/01/22 13:32:54;;;;;;;6.30;4.07;;;6.80;1.00;;;;;;4998877;28;20253;-87
2022/01/22 13:47:43;;;;;;;15.10;3.70;;;6.70;1.00;;;;;;4993836;28;20297;-83
2022/01/22 13:48:29;;;;;;;5.15;3.25;;;6.70;1.00;;;;;;4990552;28;20992;-83
2022/01/22 13:51:23;;;;;;;32.88;6.78;;;6.60;1.00;;;;;;4990380;28;20226;-85
2022/01/22 13:53:50;;;;;;;15.18;5.05;;;6.60;1.00;;;;;;4915332;28;20236;-81
2022/01/22 13:56:22;;;;;;;12.70;4.22;;;6.60;1.00;;;;;;4984323;28;20238;-82
2022/01/22 13:58:55;;;;;;;9.77;3.90;;;6.60;1.00;;;;;;4995490;28;20223;-83
2022/01/22 14:01:42;;;;;;;6.35;3.17;;;6.70;1.00;;;;;;5002029;28;20230;-82
2022/01/22 14:04:19;;;;;;;17.25;5.47;;;6.70;1.00;;;;;;5010036;28;20235;-82
2022/01/22 14:07:00;;;;;;;12.25;4.82;;;6.80;1.00;;;;;;4994980;28;20223;-81
2022/01/22 14:09:27;;;;;;;10.23;4.97;;;6.90;1.00;;;;;;4989818;28;20239;-80
2022/01/22 14:12:11;;;;;;;8.93;4.32;;;7.00;1.00;;;;;;4998302;28;20282;-81
2022/01/22 14:22:15;;;;;;;9.98;5.32;;;7.00;1.00;;;;;;4949971;28;20225;-82
2022/01/22 14:24:45;;;;;;;14.57;6.65;;;6.90;1.00;;;;;;5002225;28;20276;-85
2022/01/22 14:30:40;;;;;;;;;;;;;;;;;;;;;
2022/01/22 14:33:48;;;;;;;7.63;3.78;;;6.60;1.00;;;;;;4985196;28;20249;-85
2022/01/22 14:36:21;;;;;;;6.55;4.05;;;6.60;1.00;;;;;;5003219;28;20246;-81
2022/01/22 14:38:53;;;;;;;7.53;3.60;;;6.50;1.00;;;;;;4987236;28;21526;-80
2022/01/22 14:44:31;;;;;;;13.43;4.20;;;6.50;1.00;;;;;;4983651;28;20237;-81
2022/01/22 14:50:17;;;;;;;6.53;3.20;;;6.30;1.00;;;;;;4991603;28;20242;-81
2022/01/22 14:53:10;;;;;;;6.70;3.20;;;6.30;1.00;;;;;;4978113;28;20235;-84
2022/01/22 14:55:49;;;;;;;10.82;4.07;;;6.20;1.00;;;;;;4982268;28;21693;-83
2022/01/22 14:58:16;;;;;;;7.43;3.63;;;6.10;1.00;;;;;;4989562;28;20219;-84
2022/01/22 15:00:51;;;;;;;5.25;3.17;;;6.00;1.00;;;;;;4988110;28;20247;-88
2022/01/22 15:03:18;;;;;;;11.48;5.10;;;5.90;1.00;;;;;;4987912;28;20227;-85
2022/01/22 15:05:45;;;;;;;8.00;3.38;;;5.80;1.00;;;;;;4986734;28;20246;-86
2022/01/22 15:08:11;;;;;;;8.27;3.50;;;5.70;1.00;;;;;;5006020;28;20301;-86
2022/01/22 15:10:38;;;;;;;9.18;3.85;;;5.70;1.00;;;;;;5007962;28;20255;-85
2022/01/22 15:13:05;;;;;;;5.25;3.65;;;5.60;1.00;;;;;;5014113;28;20289;-86
2022/01/22 15:15:35;;;;;;;6.40;3.33;;;5.50;1.00;;;;;;5009618;28;20227;-86
2022/01/22 15:18:15;;;;;;;13.77;4.57;;;5.40;1.00;;;;;;5010657;28;20219;-85
2022/01/22 15:20:42;;;;;;;9.45;4.03;;;5.40;1.00;;;;;;5016038;28;20211;-88
2022/01/22 15:23:09;;;;;;;7.00;3.70;;;5.30;1.00;;;;;;5031756;28;20306;-87
2022/01/22 15:25:39;;;;;;;13.85;6.10;;;5.20;1.00;;;;;;5020211;28;20219;-87
2022/01/22 15:28:06;;;;;;;7.32;3.92;;;5.20;1.00;;;;;;5029062;28;20219;-86
2022/01/22 15:30:36;;;;;;;7.32;4.03;;;5.10;1.00;;;;;;5027800;28;20237;-86
2022/01/22 15:33:18;;;;;;;7.75;4.47;;;5.00;1.00;;;;;;5012775;28;20238;-86
2022/01/22 15:35:45;;;;;;;13.18;4.60;;;5.00;1.00;;;;;;5010682;28;20223;-86
2022/01/22 15:38:12;;;;;;;13.10;4.68;;;5.00;1.00;;;;;;5011190;28;20220;-85
2022/01/22 15:40:42;;;;;;;11.68;4.95;;;4.90;1.00;;;;;;5001541;28;20238;-86
2022/01/22 15:43:10;;;;;;;7.38;4.85;;;4.90;1.00;;;;;;5016029;28;20234;-87
2022/01/22 15:45:37;;;;;;;11.75;5.95;;;4.80;1.00;;;;;;4997278;28;20246;-84
2022/01/22 15:48:10;;;;;;;21.73;6.20;;;4.80;1.00;;;;;;5019079;28;20215;-88
2022/01/22 15:50:39;;;;;;;8.38;5.10;;;4.80;1.00;;;;;;5023416;28;20241;-86
2022/01/22 15:53:07;;;;;;;11.25;5.00;;;4.70;1.00;;;;;;5026094;28;20250;-85
2022/01/22 15:55:36;;;;;;;9.55;5.78;;;4.70;1.00;;;;;;5009801;28;20232;-84
2022/01/22 15:58:29;;;;;;;13.90;5.30;;;4.70;1.00;;;;;;5130435;22;21217;-85
2022/01/22 16:01:27;;;;;;;8.02;5.82;;;4.80;1.00;;;;;;5038703;28;20234;-85
2022/01/22 16:07:18;;;;;;;17.95;5.90;;;4.80;1.00;;;;;;5024942;28;20238;-83
2022/01/22 16:10:00;;;;;;;9.48;5.60;;;4.90;1.00;;;;;;5004765;28;20227;-85
2022/01/22 16:12:48;;;;;;;8.15;5.90;;;4.90;1.00;;;;;;5007039;28;20809;-86
2022/01/22 16:15:29;;;;;;;6.28;4.75;;;4.90;1.00;;;;;;5025597;28;20218;-86
2022/01/22 16:18:05;;;;;;;9.25;5.97;;;4.90;1.00;;;;;;5010477;28;20227;-85
2022/01/22 16:20:41;;;;;;;10.43;5.70;;;4.80;1.00;;;;;;5026935;28;20230;-84
2022/01/22 16:23:18;;;;;;;13.02;7.13;;;4.90;1.00;;;;;;5009352;28;20230;-85
2022/01/22 16:29:14;;;;;;;12.60;6.97;;;4.90;1.00;;;;;;5008254;28;20300;-85
2022/01/22 16:32:09;;;;;;;14.10;6.82;;;4.90;1.00;;;;;;5024672;28;20290;-86
2022/01/22 16:34:46;;;;;;;9.93;5.82;;;4.90;1.00;;;;;;5006485;28;20230;-86
2022/01/22 16:37:52;;;;;;;10.70;7.53;;;4.90;1.00;;;;;;5009114;28;20226;-84
2022/01/22 16:40:48;;;;;;;12.32;5.97;;;4.90;1.00;;;;;;4955077;28;21027;-86
2022/01/22 16:43:15;;;;;;;18.00;10.65;;;5.00;1.00;;;;;;5016368;28;20285;-83
2022/01/22 16:45:53;;;;;;;10.88;6.03;;;5.00;1.00;;;;;;5010800;28;20215;-85
2022/01/22 16:51:20;;;;;;;19.42;16.60;;;4.90;1.00;;;;;;5010989;28;20225;-83
2022/01/22 16:56:49;;;;;;;12.73;5.72;;;4.90;1.00;;;;;;5028117;28;20229;-83
2022/01/22 16:59:18;;;;;;;10.50;6.18;;;5.00;1.00;;;;;;5021779;28;20281;-86
2022/01/22 17:01:49;;;;;;;10.45;5.55;;;4.90;1.00;;;;;;5026993;28;20215;-84
2022/01/22 17:04:25;;;;;;;12.85;6.15;;;4.90;1.00;;;;;;5005108;28;20289;-84
2022/01/22 17:10:23;;;;;;;12.40;6.38;;;5.00;1.00;;;;;;4995448;28;20233;-84
2022/01/22 17:15:54;;;;;;;12.32;6.32;;;5.00;1.00;;;;;;5027858;28;20214;-86
2022/01/22 17:18:26;;;;;;;12.77;6.15;;;5.00;1.00;;;;;;5044996;28;20229;-84
2022/01/22 17:21:04;;;;;;;13.52;7.18;;;5.00;1.00;;;;;;5023142;28;20392;-83
2022/01/22 17:23:57;;;;;;;11.05;7.32;;;4.90;1.00;;;;;;5008580;28;20330;-83
2022/01/22 17:26:27;;;;;;;12.43;6.70;;;4.90;1.00;;;;;;5029994;28;20222;-84
2022/01/22 17:32:09;;;;;;;10.75;6.43;;;4.90;1.00;;;;;;5043373;28;20316;-83
2022/01/22 17:34:39;;;;;;;12.25;6.80;;;5.00;1.00;;;;;;5030051;28;20222;-82
2022/01/22 17:37:06;;;;;;;13.52;8.13;;;5.00;1.00;;;;;;5034464;28;20225;-84
2022/01/22 17:39:38;;;;;;;14.07;6.95;;;4.90;1.00;;;;;;5050233;28;20222;-85
2022/01/22 17:42:18;;;;;;;11.50;7.80;;;5.00;1.00;;;;;;5051356;28;20314;-85
2022/01/22 17:44:58;;;;;;;14.20;8.02;;;5.00;1.00;;;;;;5031277;28;20221;-88
2022/01/22 17:47:29;;;;;;;13.43;9.70;;;5.00;1.00;;;;;;5035661;28;20258;-88
2022/01/22 17:50:04;;;;;;;18.40;10.65;;;4.90;1.00;;;;;;5047968;28;20225;-86
2022/01/22 17:55:55;;;;;;;13.38;8.68;;;4.90;1.00;;;;;;5009532;28;20264;-87
2022/01/22 17:58:27;;;;;;;12.15;8.23;;;4.90;1.00;;;;;;5034738;28;20508;-88
2022/01/22 18:01:24;;;;;;;13.55;8.40;;;4.90;1.00;;;;;;5037367;28;20215;-87
2022/01/22 18:04:18;;;;;;;10.23;7.85;;;4.80;1.00;;;;;;5029355;28;20300;-87
2022/01/22 18:06:55;;;;;;;12.93;9.30;;;4.80;1.00;;;;;;5035565;28;20238;-88
2022/01/22 18:09:34;;;;;;;14.00;8.27;;;4.90;1.00;;;;;;5046081;28;20207;-87
2022/01/22 18:12:12;;;;;;;11.52;7.63;;;4.90;1.00;;;;;;5036242;28;20265;-88
2022/01/22 18:14:40;;;;;;;17.30;9.40;;;5.00;1.00;;;;;;5055326;28;20214;-87
2022/01/22 18:17:14;;;;;;;15.95;8.70;;;5.00;1.00;;;;;;5038391;28;20215;-89
2022/01/22 18:19:45;;;;;;;14.65;8.60;;;5.00;1.00;;;;;;5024627;28;20761;-87
2022/01/22 18:24:56;;;;;;;10.82;8.82;;;5.00;1.00;;;;;;5015758;28;20248;-87
2022/01/22 18:27:40;;;;;;;15.45;8.95;;;5.00;1.00;;;;;;5019362;28;20272;-88
2022/01/22 18:30:20;;;;;;;11.80;9.00;;;5.00;1.00;;;;;;5014719;28;20207;-88
2022/01/22 18:32:51;;;;;;;15.57;9.43;;;5.00;1.00;;;;;;5000379;28;20238;-83
2022/01/22 18:35:20;;;;;;;14.55;10.68;;;5.00;1.00;;;;;;5017422;28;20235;-82
2022/01/22 18:37:46;;;;;;;19.38;13.32;;;5.00;1.00;;;;;;5015373;28;20270;-83
2022/01/22 18:40:15;;;;;;;16.63;13.95;;;4.90;1.00;;;;;;5010418;28;20286;-83
2022/01/22 18:42:45;;;;;;;12.10;9.23;;;5.00;1.00;;;;;;5001481;28;20247;-82
2022/01/22 18:45:11;;;;;;;12.45;8.82;;;4.90;1.00;;;;;;4997194;28;20231;-82
2022/01/22 18:47:39;;;;;;;19.38;9.63;;;4.90;1.00;;;;;;5015657;28;20215;-82